sensor_id;sensor_type;location;lat;lon;timestamp;temperature;humidity
19888;DHT22;10106;51.332;12.336;2022-08-11T00:01:09;19.00;77.00
19888;DHT22;10106;51.332;12.336;2022-08-11T00:03:35;18.90;77.60
19888;DHT22;10106;51.332;12.336;2022-08-11T00:06:06;18.90;77.90
19888;DHT22;10106;51.332;12.336;2022-08-11T00:08:31;18.90;77.90
19888;DHT22;10106;51.332;12.336;2022-08-11T00:10:59;18.80;78.00
19888;DHT22;10106;51.332;12.336;2022-08-11T00:13:41;18.80;78.40
19888;DHT22;10106;51.332;12.336;2022-08-11T00:18:38;18.80;79.00
19888;DHT22;10106;51.332;12.336;2022-08-11T00:21:05;18.70;78.90
19888;DHT22;10106;51.332;12.336;2022-08-11T00:23:31;18.70;79.50
19888;DHT22;10106;51.332;12.336;2022-08-11T00:25:56;18.60;79.80
19888;DHT22;10106;51.332;12.336;2022-08-11T00:30:49;18.60;80.60
19888;DHT22;10106;51.332;12.336;2022-08-11T00:33:15;18.50;80.70
19888;DHT22;10106;51.332;12.336;2022-08-11T00:35:41;18.50;81.40
19888;DHT22;10106;51.332;12.336;2022-08-11T00:38:07;18.60;81.70
19888;DHT22;10106;51.332;12.336;2022-08-11T00:43:57;18.50;82.20
19888;DHT22;10106;51.332;12.336;2022-08-11T00:46:15;18.50;82.70
19888;DHT22;10106;51.332;12.336;2022-08-11T00:48:44;18.50;82.80
19888;DHT22;10106;51.332;12.336;2022-08-11T01:01:09;18.50;83.60
19888;DHT22;10106;51.332;12.336;2022-08-11T01:17:12;18.40;85.00
19888;DHT22;10106;51.332;12.336;2022-08-11T01:20:13;18.30;85.70
19888;DHT22;10106;51.332;12.336;2022-08-11T01:30:42;18.10;87.70
19888;DHT22;10106;51.332;12.336;2022-08-11T01:36:05;18.10;88.70
19888;DHT22;10106;51.332;12.336;2022-08-11T01:44:01;18.10;89.80
19888;DHT22;10106;51.332;12.336;2022-08-11T01:47:04;18.10;89.60
19888;DHT22;10106;51.332;12.336;2022-08-11T01:49:34;18.10;90.10
19888;DHT22;10106;51.332;12.336;2022-08-11T01:52:10;18.10;90.20
19888;DHT22;10106;51.332;12.336;2022-08-11T01:54:43;18.10;90.50
19888;DHT22;10106;51.332;12.336;2022-08-11T01:59:56;18.00;91.10
19888;DHT22;10106;51.332;12.336;2022-08-11T02:05:19;17.90;91.90
19888;DHT22;10106;51.332;12.336;2022-08-11T02:07:55;17.90;92.10
19888;DHT22;10106;51.332;12.336;2022-08-11T02:10:24;17.90;92.60
19888;DHT22;10106;51.332;12.336;2022-08-11T02:15:54;17.80;93.60
19888;DHT22;10106;51.332;12.336;2022-08-11T02:18:31;17.80;94.10
19888;DHT22;10106;51.332;12.336;2022-08-11T02:21:20;17.80;94.30
19888;DHT22;10106;51.332;12.336;2022-08-11T02:24:12;17.80;94.80
19888;DHT22;10106;51.332;12.336;2022-08-11T02:26:40;17.70;95.50
19888;DHT22;10106;51.332;12.336;2022-08-11T02:29:20;17.70;96.20
19888;DHT22;10106;51.332;12.336;2022-08-11T02:31:53;17.70;96.80
19888;DHT22;10106;51.332;12.336;2022-08-11T02:50:38;17.50;99.90
19888;DHT22;10106;51.332;12.336;2022-08-11T02:53:08;17.50;99.90
19888;DHT22;10106;51.332;12.336;2022-08-11T02:58:14;17.50;99.90
19888;DHT22;10106;51.332;12.336;2022-08-11T03:03:43;17.40;99.90
19888;DHT22;10106;51.332;12.336;2022-08-11T03:08:47;17.30;99.90
19888;DHT22;10106;51.332;12.336;2022-08-11T03:11:19;17.30;99.90
19888;DHT22;10106;51.332;12.336;2022-08-11T03:14:08;17.30;99.90
19888;DHT22;10106;51.332;12.336;2022-08-11T03:17:40;17.20;99.90
19888;DHT22;10106;51.332;12.336;2022-08-11T03:19:54;17.20;99.90
19888;DHT22;10106;51.332;12.336;2022-08-11T03:24:55;17.10;99.90
19888;DHT22;10106;51.332;12.336;2022-08-11T03:35:00;17.10;99.90
19888;DHT22;10106;51.332;12.336;2022-08-11T03:43:02;17.10;99.90
19888;DHT22;10106;51.332;12.336;2022-08-11T03:45:46;17.10;99.90
19888;DHT22;10106;51.332;12.336;2022-08-11T03:48:21;17.10;99.90
19888;DHT22;10106;51.332;12.336;2022-08-11T03:53:54;17.10;99.90
19888;DHT22;10106;51.332;12.336;2022-08-11T03:59:24;17.10;99.90
19888;DHT22;10106;51.332;12.336;2022-08-11T04:12:42;17.10;99.90
19888;DHT22;10106;51.332;12.336;2022-08-11T04:20:50;17.30;99.90
19888;DHT22;10106;51.332;12.336;2022-08-11T04:24:23;17.40;99.90
19888;DHT22;10106;51.332;12.336;2022-08-11T04:29:22;17.50;99.90
19888;DHT22;10106;51.332;12.336;2022-08-11T04:42:47;17.80;99.90
19888;DHT22;10106;51.332;12.336;2022-08-11T04:56:47;19.20;99.90
19888;DHT22;10106;51.332;12.336;2022-08-11T04:59:39;20.50;99.90
19888;DHT22;10106;51.332;12.336;2022-08-11T05:13:27;25.60;85.20
19888;DHT22;10106;51.332;12.336;2022-08-11T05:16:16;25.80;83.40
19888;DHT22;10106;51.332;12.336;2022-08-11T05:19:01;25.00;81.90
19888;DHT22;10106;51.332;12.336;2022-08-11T05:21:52;24.50;83.60
19888;DHT22;10106;51.332;12.336;2022-08-11T05:24:43;24.60;84.60
19888;DHT22;10106;51.332;12.336;2022-08-11T05:27:34;24.60;84.10
19888;DHT22;10106;51.332;12.336;2022-08-11T05:30:19;24.00;84.50
19888;DHT22;10106;51.332;12.336;2022-08-11T05:33:24;23.30;87.30
19888;DHT22;10106;51.332;12.336;2022-08-11T05:39:18;22.40;90.70
19888;DHT22;10106;51.332;12.336;2022-08-11T05:42:06;22.10;91.40
19888;DHT22;10106;51.332;12.336;2022-08-11T05:44:54;21.90;92.10
19888;DHT22;10106;51.332;12.336;2022-08-11T05:47:40;21.90;92.80
19888;DHT22;10106;51.332;12.336;2022-08-11T05:50:26;22.50;92.40
19888;DHT22;10106;51.332;12.336;2022-08-11T05:53:12;22.90;91.20
19888;DHT22;10106;51.332;12.336;2022-08-11T05:56:02;22.90;90.80
19888;DHT22;10106;51.332;12.336;2022-08-11T05:58:50;23.10;91.10
19888;DHT22;10106;51.332;12.336;2022-08-11T06:01:32;24.10;89.50
19888;DHT22;10106;51.332;12.336;2022-08-11T06:04:05;24.20;86.80
19888;DHT22;10106;51.332;12.336;2022-08-11T06:06:48;24.00;87.70
19888;DHT22;10106;51.332;12.336;2022-08-11T06:09:23;23.90;87.40
19888;DHT22;10106;51.332;12.336;2022-08-11T06:11:50;23.70;87.30
19888;DHT22;10106;51.332;12.336;2022-08-11T06:14:17;23.60;88.00
19888;DHT22;10106;51.332;12.336;2022-08-11T06:16:47;23.60;88.60
19888;DHT22;10106;51.332;12.336;2022-08-11T06:19:14;23.80;88.60
19888;DHT22;10106;51.332;12.336;2022-08-11T06:21:44;24.20;87.70
19888;DHT22;10106;51.332;12.336;2022-08-11T06:24:13;26.20;83.90
19888;DHT22;10106;51.332;12.336;2022-08-11T06:26:40;28.00;77.30
19888;DHT22;10106;51.332;12.336;2022-08-11T06:29:09;29.90;71.50
19888;DHT22;10106;51.332;12.336;2022-08-11T06:34:30;33.00;59.40
19888;DHT22;10106;51.332;12.336;2022-08-11T06:37:14;33.90;55.90
19888;DHT22;10106;51.332;12.336;2022-08-11T06:40:06;34.60;52.40
19888;DHT22;10106;51.332;12.336;2022-08-11T06:45:29;34.80;49.30
19888;DHT22;10106;51.332;12.336;2022-08-11T06:47:56;34.60;49.00
19888;DHT22;10106;51.332;12.336;2022-08-11T06:50:25;34.80;49.00
19888;DHT22;10106;51.332;12.336;2022-08-11T06:53:10;35.30;47.90
19888;DHT22;10106;51.332;12.336;2022-08-11T06:55:40;35.90;46.60
19888;DHT22;10106;51.332;12.336;2022-08-11T06:58:36;35.60;46.00
19888;DHT22;10106;51.332;12.336;2022-08-11T07:01:52;35.80;45.40
19888;DHT22;10106;51.332;12.336;2022-08-11T07:04:48;35.80;45.40
19888;DHT22;10106;51.332;12.336;2022-08-11T07:13:06;36.40;43.50
19888;DHT22;10106;51.332;12.336;2022-08-11T07:15:51;36.40;43.50
19888;DHT22;10106;51.332;12.336;2022-08-11T07:18:28;36.90;42.30
19888;DHT22;10106;51.332;12.336;2022-08-11T07:21:36;37.50;41.50
19888;DHT22;10106;51.332;12.336;2022-08-11T07:24:24;37.60;40.60
19888;DHT22;10106;51.332;12.336;2022-08-11T07:27:14;38.60;40.70
19888;DHT22;10106;51.332;12.336;2022-08-11T07:30:03;38.40;39.50
19888;DHT22;10106;51.332;12.336;2022-08-11T07:32:40;38.40;38.50
19888;DHT22;10106;51.332;12.336;2022-08-11T07:35:15;39.00;38.70
19888;DHT22;10106;51.332;12.336;2022-08-11T07:37:47;39.30;37.30
19888;DHT22;10106;51.332;12.336;2022-08-11T07:40:22;38.90;36.20
19888;DHT22;10106;51.332;12.336;2022-08-11T07:42:49;38.60;36.60
19888;DHT22;10106;51.332;12.336;2022-08-11T07:45:15;39.50;36.50
19888;DHT22;10106;51.332;12.336;2022-08-11T07:48:00;40.30;35.30
19888;DHT22;10106;51.332;12.336;2022-08-11T07:50:45;40.30;35.30
19888;DHT22;10106;51.332;12.336;2022-08-11T07:53:30;40.60;34.90
19888;DHT22;10106;51.332;12.336;2022-08-11T07:55:59;40.30;34.90
19888;DHT22;10106;51.332;12.336;2022-08-11T07:58:26;40.30;34.70
19888;DHT22;10106;51.332;12.336;2022-08-11T08:01:16;40.00;34.10
19888;DHT22;10106;51.332;12.336;2022-08-11T08:04:01;40.20;33.80
19888;DHT22;10106;51.332;12.336;2022-08-11T08:06:47;40.70;33.60
19888;DHT22;10106;51.332;12.336;2022-08-11T08:09:33;40.80;33.80
19888;DHT22;10106;51.332;12.336;2022-08-11T08:12:21;41.30;32.30
19888;DHT22;10106;51.332;12.336;2022-08-11T08:15:06;41.60;31.80
19888;DHT22;10106;51.332;12.336;2022-08-11T08:17:52;40.60;30.80
19888;DHT22;10106;51.332;12.336;2022-08-11T08:20:29;40.90;31.40
19888;DHT22;10106;51.332;12.336;2022-08-11T08:22:58;41.00;30.10
19888;DHT22;10106;51.332;12.336;2022-08-11T08:25:26;40.90;30.40
19888;DHT22;10106;51.332;12.336;2022-08-11T08:27:54;41.20;30.00
19888;DHT22;10106;51.332;12.336;2022-08-11T08:30:21;41.80;29.20
19888;DHT22;10106;51.332;12.336;2022-08-11T08:33:07;41.10;29.00
19888;DHT22;10106;51.332;12.336;2022-08-11T08:35:35;41.20;29.70
19888;DHT22;10106;51.332;12.336;2022-08-11T08:38:02;41.00;29.40
19888;DHT22;10106;51.332;12.336;2022-08-11T08:40:28;40.60;29.40
19888;DHT22;10106;51.332;12.336;2022-08-11T08:43:09;41.10;29.40
19888;DHT22;10106;51.332;12.336;2022-08-11T08:45:38;41.20;29.20
19888;DHT22;10106;51.332;12.336;2022-08-11T08:48:12;41.70;28.90
19888;DHT22;10106;51.332;12.336;2022-08-11T08:50:51;41.90;28.80
19888;DHT22;10106;51.332;12.336;2022-08-11T08:53:40;41.70;28.90
19888;DHT22;10106;51.332;12.336;2022-08-11T08:56:08;42.30;28.60
19888;DHT22;10106;51.332;12.336;2022-08-11T08:58:37;42.40;28.20
19888;DHT22;10106;51.332;12.336;2022-08-11T09:01:03;42.10;27.80
19888;DHT22;10106;51.332;12.336;2022-08-11T09:03:30;41.80;28.10
19888;DHT22;10106;51.332;12.336;2022-08-11T09:05:56;41.30;28.10
19888;DHT22;10106;51.332;12.336;2022-08-11T09:08:23;41.30;28.60
19888;DHT22;10106;51.332;12.336;2022-08-11T09:10:49;42.10;28.40
19888;DHT22;10106;51.332;12.336;2022-08-11T09:13:35;42.50;27.90
19888;DHT22;10106;51.332;12.336;2022-08-11T09:16:05;42.30;27.10
19888;DHT22;10106;51.332;12.336;2022-08-11T09:18:33;41.50;26.60
19888;DHT22;10106;51.332;12.336;2022-08-11T09:21:01;41.70;27.10
19888;DHT22;10106;51.332;12.336;2022-08-11T09:23:27;42.10;27.50
19888;DHT22;10106;51.332;12.336;2022-08-11T09:26:12;42.50;27.20
19888;DHT22;10106;51.332;12.336;2022-08-11T09:28:59;42.90;26.50
19888;DHT22;10106;51.332;12.336;2022-08-11T09:31:27;41.90;26.30
19888;DHT22;10106;51.332;12.336;2022-08-11T09:33:54;40.70;27.20
19888;DHT22;10106;51.332;12.336;2022-08-11T09:36:20;40.80;27.20
19888;DHT22;10106;51.332;12.336;2022-08-11T09:39:05;41.10;27.20
19888;DHT22;10106;51.332;12.336;2022-08-11T09:41:50;41.00;26.90
19888;DHT22;10106;51.332;12.336;2022-08-11T09:44:16;40.50;26.80
19888;DHT22;10106;51.332;12.336;2022-08-11T09:47:02;39.40;27.00
19888;DHT22;10106;51.332;12.336;2022-08-11T09:49:30;38.40;27.70
19888;DHT22;10106;51.332;12.336;2022-08-11T09:51:56;38.10;28.00
19888;DHT22;10106;51.332;12.336;2022-08-11T09:54:24;38.50;27.80
19888;DHT22;10106;51.332;12.336;2022-08-11T09:56:52;37.00;28.50
19888;DHT22;10106;51.332;12.336;2022-08-11T09:59:37;36.50;29.20
19888;DHT22;10106;51.332;12.336;2022-08-11T10:02:04;37.00;29.10
19888;DHT22;10106;51.332;12.336;2022-08-11T10:04:41;37.70;29.00
19888;DHT22;10106;51.332;12.336;2022-08-11T10:07:11;38.60;28.40
19888;DHT22;10106;51.332;12.336;2022-08-11T10:09:52;37.50;28.10
19888;DHT22;10106;51.332;12.336;2022-08-11T10:12:26;38.00;28.00
19888;DHT22;10106;51.332;12.336;2022-08-11T10:15:00;37.70;28.20
19888;DHT22;10106;51.332;12.336;2022-08-11T10:17:47;36.70;28.30
19888;DHT22;10106;51.332;12.336;2022-08-11T10:20:35;35.20;29.70
19888;DHT22;10106;51.332;12.336;2022-08-11T10:23:02;34.00;30.80
19888;DHT22;10106;51.332;12.336;2022-08-11T10:25:47;32.60;32.40
19888;DHT22;10106;51.332;12.336;2022-08-11T10:28:34;31.30;34.00
19888;DHT22;10106;51.332;12.336;2022-08-11T10:31:00;30.20;35.50
19888;DHT22;10106;51.332;12.336;2022-08-11T10:33:46;30.40;35.70
19888;DHT22;10106;51.332;12.336;2022-08-11T10:36:29;30.20;35.40
19888;DHT22;10106;51.332;12.336;2022-08-11T10:38:56;30.00;35.50
19888;DHT22;10106;51.332;12.336;2022-08-11T10:41:24;29.90;36.50
19888;DHT22;10106;51.332;12.336;2022-08-11T10:44:09;29.90;36.70
19888;DHT22;10106;51.332;12.336;2022-08-11T10:46:37;29.70;36.70
19888;DHT22;10106;51.332;12.336;2022-08-11T10:49:23;29.40;36.70
19888;DHT22;10106;51.332;12.336;2022-08-11T10:51:50;29.60;36.70
19888;DHT22;10106;51.332;12.336;2022-08-11T10:54:36;29.80;37.00
19888;DHT22;10106;51.332;12.336;2022-08-11T10:57:22;29.80;37.60
19888;DHT22;10106;51.332;12.336;2022-08-11T11:00:09;29.90;37.20
19888;DHT22;10106;51.332;12.336;2022-08-11T11:02:43;30.10;37.40
19888;DHT22;10106;51.332;12.336;2022-08-11T11:05:19;30.10;37.80
19888;DHT22;10106;51.332;12.336;2022-08-11T11:07:50;29.90;36.80
19888;DHT22;10106;51.332;12.336;2022-08-11T11:10:17;29.70;37.10
19888;DHT22;10106;51.332;12.336;2022-08-11T11:12:45;29.60;37.40
19888;DHT22;10106;51.332;12.336;2022-08-11T11:15:34;29.70;37.60
19888;DHT22;10106;51.332;12.336;2022-08-11T11:18:21;29.60;37.30
19888;DHT22;10106;51.332;12.336;2022-08-11T11:20:59;29.40;37.10
19888;DHT22;10106;51.332;12.336;2022-08-11T11:24:03;29.40;37.70
19888;DHT22;10106;51.332;12.336;2022-08-11T11:26:33;29.20;37.90
19888;DHT22;10106;51.332;12.336;2022-08-11T11:37:13;29.40;36.40
19888;DHT22;10106;51.332;12.336;2022-08-11T11:39:42;29.30;37.20
19888;DHT22;10106;51.332;12.336;2022-08-11T11:42:09;29.50;37.40
19888;DHT22;10106;51.332;12.336;2022-08-11T11:44:40;29.60;36.80
19888;DHT22;10106;51.332;12.336;2022-08-11T11:47:07;29.70;37.10
19888;DHT22;10106;51.332;12.336;2022-08-11T11:49:36;29.50;37.90
19888;DHT22;10106;51.332;12.336;2022-08-11T11:52:07;29.40;37.00
19888;DHT22;10106;51.332;12.336;2022-08-11T11:54:33;29.40;36.80
19888;DHT22;10106;51.332;12.336;2022-08-11T11:57:01;29.50;36.10
19888;DHT22;10106;51.332;12.336;2022-08-11T11:59:50;29.70;36.90
19888;DHT22;10106;51.332;12.336;2022-08-11T12:02:36;29.80;36.90
19888;DHT22;10106;51.332;12.336;2022-08-11T12:05:02;29.60;37.00
19888;DHT22;10106;51.332;12.336;2022-08-11T12:07:31;29.30;37.50
19888;DHT22;10106;51.332;12.336;2022-08-11T12:10:17;29.20;38.00
19888;DHT22;10106;51.332;12.336;2022-08-11T12:12:44;29.20;37.70
19888;DHT22;10106;51.332;12.336;2022-08-11T12:15:29;29.10;37.20
19888;DHT22;10106;51.332;12.336;2022-08-11T12:17:55;29.30;36.60
19888;DHT22;10106;51.332;12.336;2022-08-11T12:20:22;29.30;36.00
19888;DHT22;10106;51.332;12.336;2022-08-11T12:22:49;29.10;35.80
19888;DHT22;10106;51.332;12.336;2022-08-11T12:25:34;29.20;35.40
19888;DHT22;10106;51.332;12.336;2022-08-11T12:28:19;29.30;36.30
19888;DHT22;10106;51.332;12.336;2022-08-11T12:30:48;29.40;36.30
19888;DHT22;10106;51.332;12.336;2022-08-11T12:33:15;29.50;36.30
19888;DHT22;10106;51.332;12.336;2022-08-11T12:35:41;29.60;36.20
19888;DHT22;10106;51.332;12.336;2022-08-11T12:38:08;29.70;36.20
19888;DHT22;10106;51.332;12.336;2022-08-11T12:40:36;29.60;36.40
19888;DHT22;10106;51.332;12.336;2022-08-11T12:43:26;29.40;37.00
19888;DHT22;10106;51.332;12.336;2022-08-11T12:46:24;29.50;36.90
19888;DHT22;10106;51.332;12.336;2022-08-11T12:48:57;29.50;36.40
19888;DHT22;10106;51.332;12.336;2022-08-11T12:51:46;29.30;36.20
19888;DHT22;10106;51.332;12.336;2022-08-11T12:54:31;29.10;36.50
19888;DHT22;10106;51.332;12.336;2022-08-11T12:57:13;29.10;36.00
19888;DHT22;10106;51.332;12.336;2022-08-11T12:59:59;29.20;35.90
19888;DHT22;10106;51.332;12.336;2022-08-11T13:02:45;29.50;35.20
19888;DHT22;10106;51.332;12.336;2022-08-11T13:05:31;29.60;36.00
19888;DHT22;10106;51.332;12.336;2022-08-11T13:08:01;29.50;36.20
19888;DHT22;10106;51.332;12.336;2022-08-11T13:10:28;29.30;36.50
19888;DHT22;10106;51.332;12.336;2022-08-11T13:13:16;29.30;36.20
19888;DHT22;10106;51.332;12.336;2022-08-11T13:15:44;29.40;36.40
19888;DHT22;10106;51.332;12.336;2022-08-11T13:18:17;29.40;36.80
19888;DHT22;10106;51.332;12.336;2022-08-11T13:20:51;29.40;35.80
19888;DHT22;10106;51.332;12.336;2022-08-11T13:23:17;29.50;35.40
19888;DHT22;10106;51.332;12.336;2022-08-11T13:25:44;29.40;35.50
19888;DHT22;10106;51.332;12.336;2022-08-11T13:28:10;29.60;35.50
19888;DHT22;10106;51.332;12.336;2022-08-11T13:30:37;29.40;35.80
19888;DHT22;10106;51.332;12.336;2022-08-11T13:33:22;29.30;36.00
19888;DHT22;10106;51.332;12.336;2022-08-11T13:35:51;29.30;36.00
19888;DHT22;10106;51.332;12.336;2022-08-11T13:38:21;29.50;35.70
19888;DHT22;10106;51.332;12.336;2022-08-11T13:40:48;29.60;35.40
19888;DHT22;10106;51.332;12.336;2022-08-11T13:43:19;29.60;35.30
19888;DHT22;10106;51.332;12.336;2022-08-11T13:45:46;29.40;35.30
19888;DHT22;10106;51.332;12.336;2022-08-11T13:48:14;29.30;35.50
19888;DHT22;10106;51.332;12.336;2022-08-11T13:50:40;29.30;35.50
19888;DHT22;10106;51.332;12.336;2022-08-11T13:53:26;29.20;36.10
19888;DHT22;10106;51.332;12.336;2022-08-11T13:55:53;29.30;36.90
19888;DHT22;10106;51.332;12.336;2022-08-11T13:58:22;29.30;36.20
19888;DHT22;10106;51.332;12.336;2022-08-11T14:00:49;29.20;36.10
19888;DHT22;10106;51.332;12.336;2022-08-11T14:03:24;29.20;36.10
19888;DHT22;10106;51.332;12.336;2022-08-11T14:05:52;29.20;36.20
19888;DHT22;10106;51.332;12.336;2022-08-11T14:08:29;29.40;36.20
19888;DHT22;10106;51.332;12.336;2022-08-11T14:11:00;29.40;36.20
19888;DHT22;10106;51.332;12.336;2022-08-11T14:13:45;29.40;36.10
19888;DHT22;10106;51.332;12.336;2022-08-11T14:16:41;29.40;36.40
19888;DHT22;10106;51.332;12.336;2022-08-11T14:19:11;29.40;36.80
19888;DHT22;10106;51.332;12.336;2022-08-11T14:21:41;29.20;36.50
19888;DHT22;10106;51.332;12.336;2022-08-11T14:24:26;29.40;36.70
19888;DHT22;10106;51.332;12.336;2022-08-11T14:26:52;29.40;36.90
19888;DHT22;10106;51.332;12.336;2022-08-11T14:29:20;29.30;36.40
19888;DHT22;10106;51.332;12.336;2022-08-11T14:31:57;29.20;36.60
19888;DHT22;10106;51.332;12.336;2022-08-11T14:34:25;29.20;36.70
19888;DHT22;10106;51.332;12.336;2022-08-11T14:36:55;29.10;36.70
19888;DHT22;10106;51.332;12.336;2022-08-11T14:39:26;29.20;36.70
19888;DHT22;10106;51.332;12.336;2022-08-11T14:41:56;29.20;36.50
19888;DHT22;10106;51.332;12.336;2022-08-11T14:44:48;29.20;36.50
19888;DHT22;10106;51.332;12.336;2022-08-11T14:47:34;29.10;37.10
19888;DHT22;10106;51.332;12.336;2022-08-11T14:50:01;29.20;37.30
19888;DHT22;10106;51.332;12.336;2022-08-11T14:52:30;29.20;36.90
19888;DHT22;10106;51.332;12.336;2022-08-11T14:54:57;29.10;37.10
19888;DHT22;10106;51.332;12.336;2022-08-11T14:57:42;29.00;37.30
19888;DHT22;10106;51.332;12.336;2022-08-11T15:00:12;29.00;37.10
19888;DHT22;10106;51.332;12.336;2022-08-11T15:02:41;29.10;37.30
19888;DHT22;10106;51.332;12.336;2022-08-11T15:05:26;29.10;37.80
19888;DHT22;10106;51.332;12.336;2022-08-11T15:07:54;29.20;37.70
19888;DHT22;10106;51.332;12.336;2022-08-11T15:10:20;29.10;37.50
19888;DHT22;10106;51.332;12.336;2022-08-11T15:12:55;28.90;37.50
19888;DHT22;10106;51.332;12.336;2022-08-11T15:15:24;28.90;37.60
19888;DHT22;10106;51.332;12.336;2022-08-11T15:18:14;28.80;37.70
19888;DHT22;10106;51.332;12.336;2022-08-11T15:20:42;28.80;38.00
19888;DHT22;10106;51.332;12.336;2022-08-11T15:23:26;28.80;38.00
19888;DHT22;10106;51.332;12.336;2022-08-11T15:26:14;28.80;38.30
19888;DHT22;10106;51.332;12.336;2022-08-11T15:28:48;28.80;37.90
19888;DHT22;10106;51.332;12.336;2022-08-11T15:31:35;28.80;37.90
19888;DHT22;10106;51.332;12.336;2022-08-11T15:34:09;28.80;37.50
19888;DHT22;10106;51.332;12.336;2022-08-11T15:36:58;28.80;37.40
19888;DHT22;10106;51.332;12.336;2022-08-11T15:43:06;28.80;37.60
19888;DHT22;10106;51.332;12.336;2022-08-11T15:45:55;28.80;37.40
19888;DHT22;10106;51.332;12.336;2022-08-11T15:51:16;28.70;37.50
19888;DHT22;10106;51.332;12.336;2022-08-11T15:53:47;28.70;37.50
19888;DHT22;10106;51.332;12.336;2022-08-11T15:56:16;28.80;37.80
19888;DHT22;10106;51.332;12.336;2022-08-11T15:58:46;28.70;37.50
19888;DHT22;10106;51.332;12.336;2022-08-11T16:01:38;28.70;38.10
19888;DHT22;10106;51.332;12.336;2022-08-11T16:04:26;28.70;37.80
19888;DHT22;10106;51.332;12.336;2022-08-11T16:07:04;28.60;38.20
19888;DHT22;10106;51.332;12.336;2022-08-11T16:12:03;28.50;38.40
19888;DHT22;10106;51.332;12.336;2022-08-11T16:14:36;28.40;37.90
19888;DHT22;10106;51.332;12.336;2022-08-11T16:17:25;28.40;38.10
19888;DHT22;10106;51.332;12.336;2022-08-11T16:19:53;28.40;38.40
19888;DHT22;10106;51.332;12.336;2022-08-11T16:22:27;28.40;37.70
19888;DHT22;10106;51.332;12.336;2022-08-11T16:25:11;28.40;38.00
19888;DHT22;10106;51.332;12.336;2022-08-11T16:27:41;28.30;38.10
19888;DHT22;10106;51.332;12.336;2022-08-11T16:30:08;28.30;37.90
19888;DHT22;10106;51.332;12.336;2022-08-11T16:32:38;28.30;37.70
19888;DHT22;10106;51.332;12.336;2022-08-11T16:35:08;28.20;37.70
19888;DHT22;10106;51.332;12.336;2022-08-11T16:37:54;28.20;37.90
19888;DHT22;10106;51.332;12.336;2022-08-11T16:40:41;28.10;38.20
19888;DHT22;10106;51.332;12.336;2022-08-11T16:43:11;28.10;37.90
19888;DHT22;10106;51.332;12.336;2022-08-11T16:45:57;28.10;38.10
19888;DHT22;10106;51.332;12.336;2022-08-11T16:48:45;28.10;38.10
19888;DHT22;10106;51.332;12.336;2022-08-11T16:53:43;28.00;37.70
19888;DHT22;10106;51.332;12.336;2022-08-11T16:56:11;28.00;37.50
19888;DHT22;10106;51.332;12.336;2022-08-11T16:58:43;27.90;37.30
19888;DHT22;10106;51.332;12.336;2022-08-11T17:01:31;27.80;37.10
19888;DHT22;10106;51.332;12.336;2022-08-11T17:07:12;27.70;37.10
19888;DHT22;10106;51.332;12.336;2022-08-11T17:09:59;27.70;37.10
19888;DHT22;10106;51.332;12.336;2022-08-11T17:12:49;27.70;37.20
19888;DHT22;10106;51.332;12.336;2022-08-11T17:15:35;27.70;36.90
19888;DHT22;10106;51.332;12.336;2022-08-11T17:18:21;27.70;36.70
19888;DHT22;10106;51.332;12.336;2022-08-11T17:21:20;27.70;36.90
19888;DHT22;10106;51.332;12.336;2022-08-11T17:23:53;27.60;36.70
19888;DHT22;10106;51.332;12.336;2022-08-11T17:26:27;27.60;36.40
19888;DHT22;10106;51.332;12.336;2022-08-11T17:29:14;27.60;36.30
19888;DHT22;10106;51.332;12.336;2022-08-11T17:31:42;27.50;36.50
19888;DHT22;10106;51.332;12.336;2022-08-11T17:34:27;27.40;36.60
19888;DHT22;10106;51.332;12.336;2022-08-11T17:37:13;27.30;36.60
19888;DHT22;10106;51.332;12.336;2022-08-11T17:39:39;27.20;36.40
19888;DHT22;10106;51.332;12.336;2022-08-11T17:42:06;27.20;36.40
19888;DHT22;10106;51.332;12.336;2022-08-11T17:44:51;27.10;36.40
19888;DHT22;10106;51.332;12.336;2022-08-11T17:47:35;27.00;36.20
19888;DHT22;10106;51.332;12.336;2022-08-11T17:50:19;26.90;36.60
19888;DHT22;10106;51.332;12.336;2022-08-11T17:52:45;26.80;36.80
19888;DHT22;10106;51.332;12.336;2022-08-11T17:55:30;26.70;36.60
19888;DHT22;10106;51.332;12.336;2022-08-11T17:58:15;26.70;36.40
19888;DHT22;10106;51.332;12.336;2022-08-11T18:01:00;26.70;36.50
19888;DHT22;10106;51.332;12.336;2022-08-11T18:03:26;26.60;36.20
19888;DHT22;10106;51.332;12.336;2022-08-11T18:06:01;26.50;36.00
19888;DHT22;10106;51.332;12.336;2022-08-11T18:08:28;26.50;36.30
19888;DHT22;10106;51.332;12.336;2022-08-11T18:11:13;26.40;36.00
19888;DHT22;10106;51.332;12.336;2022-08-11T18:13:58;26.30;35.90
19888;DHT22;10106;51.332;12.336;2022-08-11T18:16:44;26.30;36.20
19888;DHT22;10106;51.332;12.336;2022-08-11T18:19:28;26.20;36.20
19888;DHT22;10106;51.332;12.336;2022-08-11T18:22:15;26.10;36.10
19888;DHT22;10106;51.332;12.336;2022-08-11T18:25:02;26.00;36.20
19888;DHT22;10106;51.332;12.336;2022-08-11T18:27:48;26.00;36.40
19888;DHT22;10106;51.332;12.336;2022-08-11T18:30:35;25.80;36.40
19888;DHT22;10106;51.332;12.336;2022-08-11T18:33:21;25.70;36.70
19888;DHT22;10106;51.332;12.336;2022-08-11T18:36:08;25.60;36.80
19888;DHT22;10106;51.332;12.336;2022-08-11T18:38:53;25.60;37.10
19888;DHT22;10106;51.332;12.336;2022-08-11T18:41:39;25.40;37.40
19888;DHT22;10106;51.332;12.336;2022-08-11T18:44:25;25.30;37.90
19888;DHT22;10106;51.332;12.336;2022-08-11T18:47:12;25.10;37.90
19888;DHT22;10106;51.332;12.336;2022-08-11T18:49:57;25.00;38.20
19888;DHT22;10106;51.332;12.336;2022-08-11T18:52:43;25.00;38.30
19888;DHT22;10106;51.332;12.336;2022-08-11T18:55:28;24.90;38.40
19888;DHT22;10106;51.332;12.336;2022-08-11T18:58:13;24.80;38.60
19888;DHT22;10106;51.332;12.336;2022-08-11T19:00:58;24.70;38.80
19888;DHT22;10106;51.332;12.336;2022-08-11T19:03:43;24.70;38.90
19888;DHT22;10106;51.332;12.336;2022-08-11T19:06:28;24.70;38.90
19888;DHT22;10106;51.332;12.336;2022-08-11T19:09:16;24.70;39.00
19888;DHT22;10106;51.332;12.336;2022-08-11T19:12:00;24.60;39.10
19888;DHT22;10106;51.332;12.336;2022-08-11T19:14:45;24.60;39.30
19888;DHT22;10106;51.332;12.336;2022-08-11T19:17:30;24.50;39.30
19888;DHT22;10106;51.332;12.336;2022-08-11T19:20:17;24.40;39.50
19888;DHT22;10106;51.332;12.336;2022-08-11T19:23:03;24.40;39.70
19888;DHT22;10106;51.332;12.336;2022-08-11T19:25:47;24.30;39.80
19888;DHT22;10106;51.332;12.336;2022-08-11T19:28:33;24.10;39.90